Bluefin — WDE9397 — position and weather

sailwx.info

Track history (hours):
 
Tides and Currents Weather Stations Pressure Air Temp Water Temp Dewpoint Dewpoint Depression Visibility Wind Speed Wind Dir Waves Ship Positions

Bluefin

Owner: Penn Maritime Inc., SEATTLE, WA. More information available from US FCC via Universal Licensing System and Coast Guard Vessel Documentation Center.

Last reported at 2014-Oct-24 12:33 UTC. Time now 2014-Oct-24 16:17 UTC.
Position N 39°49' W 075°24'.

Length 166 m; draft 6.6 m.

Type: Towing. MMSI: 367416750.

Date/timePositionNaut miles runAvg speedWind from/ knotsBaromVisibWave heightAir tempDewpointWater temp
2014-Oct-24 12:33N 39°49' W 075°24'9 9.4
2014-Oct-24 11:33N 39°41' W 075°31'8 7.7
2014-Oct-24 10:33N 39°34' W 075°33'1111.1
2014-Oct-24 09:33N 39°32' W 075°47'23 9.8
2014-Oct-24 07:13N 39°20' W 076°12'6 9.8
2014-Oct-24 06:33N 39°13' W 076°15'7 7.4
2014-Oct-24 05:33N 39°10' W 076°23'10 9.8
2014-Oct-24 04:33N 39°15' W 076°34'0 0.4
2014-Oct-24 03:33N 39°15' W 076°34'0 0.0
2014-Oct-24 02:33N 39°15' W 076°34'0 0.0
2014-Oct-24 01:33N 39°15' W 076°34'0 0.0
2014-Oct-24 00:33N 39°15' W 076°34'0 0.0
2014-Oct-23 23:33N 39°15' W 076°34'0 0.0
2014-Oct-23 22:33N 39°15' W 076°34'2 1.9
2014-Oct-23 21:33N 39°14' W 076°32'1110.0
2014-Oct-23 20:25N 39°09' W 076°19'3010.5
2014-Oct-23 17:30N 39°32' W 075°52'1111.2
2014-Oct-23 16:33N 39°33' W 075°39'7 6.7
2014-Oct-23 15:33N 39°39' W 075°33'10 8.5
2014-Oct-23 14:25N 39°47' W 075°27'11 0.3
2014-Oct-21 23:23N 39°52' W 075°14'0 0.0
2014-Oct-21 10:32N 39°52' W 075°14'0 0.0
2014-Oct-21 09:32N 39°52' W 075°14'0 0.0
2014-Oct-20 11:05N 39°52' W 075°13'0 0.2
2014-Oct-20 10:32N 39°52' W 075°14'0 0.0
2014-Oct-20 06:23N 39°52' W 075°14'0 0.1
2014-Oct-20 04:32N 39°52' W 075°13'0 0.0
2014-Oct-20 01:30N 39°52' W 075°13'8 8.3
2014-Oct-20 00:33N 39°49' W 075°23'1312.5
2014-Oct-19 23:33N 39°39' W 075°33'1211.8
2014-Oct-19 22:34N 39°27' W 075°34'64 7.1
2014-Oct-19 13:33N 39°26' W 074°10'1111.4
2014-Oct-19 12:33N 39°37' W 074°04'1111.3
2014-Oct-19 11:33N 39°47' W 073°58'3411.0
2014-Oct-19 08:29N 40°21' W 073°54'910.0
2014-Oct-19 07:33N 40°29' W 073°60'12 9.1
2014-Oct-19 06:14N 40°30' W 074°15'1 0.1
2014-Oct-18 21:27N 40°31' W 074°15'5 5.9
2014-Oct-18 20:31N 40°36' W 074°12'3 2.9
2014-Oct-18 19:33N 40°39' W 074°10'0 0.0
2014-Oct-18 18:33N 40°39' W 074°10'0 0.0
2014-Oct-18 17:33N 40°39' W 074°10'2 1.9
2014-Oct-18 16:29N 40°37' W 074°12'6 2.7
2014-Oct-18 14:11N 40°32' W 074°15'5 7.1
2014-Oct-18 13:29N 40°36' W 074°12'7 7.0
2014-Oct-18 12:33N 40°39' W 074°04'7 6.7
2014-Oct-18 11:33N 40°44' W 073°58'5 5.3
2014-Oct-18 10:33N 40°48' W 073°54'0 0.0
2014-Oct-18 09:18N 40°48' W 073°54'0 0.0
2014-Oct-18 08:27N 40°48' W 073°54'0 0.0
2014-Oct-18 07:33N 40°48' W 073°54'0 0.0
2014-Oct-18 06:33N 40°48' W 073°54'0 0.0
2014-Oct-18 05:33N 40°48' W 073°54'0 0.0
2014-Oct-18 04:33N 40°48' W 073°54'0 0.0
2014-Oct-18 03:33N 40°48' W 073°54'0 0.0
2014-Oct-18 02:33N 40°48' W 073°54'0 0.0
2014-Oct-18 01:33N 40°48' W 073°54'0 0.0
2014-Oct-18 00:33N 40°48' W 073°54'0 0.0
2014-Oct-17 23:33N 40°48' W 073°54'0 0.1
2014-Oct-17 22:33N 40°48' W 073°54'7 6.8
2014-Oct-17 21:33N 40°42' W 073°59'6 6.1
2014-Oct-17 20:33N 40°37' W 074°03'8 7.7
2014-Oct-17 19:28N 40°30' W 073°57'34 8.6
2014-Oct-17 15:31N 39°56' W 073°56'9 9.7
2014-Oct-17 14:33N 39°47' W 073°57'10 9.7
2014-Oct-17 13:33N 39°37' W 074°01'10 9.6
2014-Oct-17 12:32N 39°28' W 074°05'59 5.9
2014-Oct-17 02:28N 39°15' W 075°20'1112.0
2014-Oct-17 01:33N 39°24' W 075°29'1010.1
2014-Oct-17 00:33N 39°33' W 075°33'9 8.7
2014-Oct-16 23:33N 39°42' W 075°31'17 0.7
2014-Oct-15 22:33N 39°52' W 075°13'0 0.0
2014-Oct-15 19:06N 39°52' W 075°13'0 0.0
2014-Oct-15 18:27N 39°52' W 075°13'0 0.0
2014-Oct-15 12:18N 39°52' W 075°13'0 0.0
2014-Oct-15 09:33N 39°52' W 075°13'0 0.0
2014-Oct-15 08:27N 39°52' W 075°13'0 0.0
2014-Oct-15 07:33N 39°52' W 075°13'0 0.0
2014-Oct-15 00:12N 39°52' W 075°13'0 0.1
2014-Oct-14 23:33N 39°52' W 075°13'0 0.0
2014-Oct-14 21:06N 39°52' W 075°13'0 0.0
2014-Oct-14 20:21N 39°52' W 075°13'0 0.0
2014-Oct-14 19:09N 39°52' W 075°13'0 0.0
2014-Oct-14 17:33N 39°52' W 075°13'0 0.1
2014-Oct-14 16:12N 39°52' W 075°13'  
Track history (hours):
 
Tides and Currents Weather Stations Pressure Air Temp Water Temp Dewpoint Dewpoint Depression Visibility Wind Speed Wind Dir Waves Ship Positions

Bluefin

Owner: Penn Maritime Inc., SEATTLE, WA. More information available from US FCC via Universal Licensing System and Coast Guard Vessel Documentation Center.

Last reported at 2014-Oct-24 12:33 UTC. Time now 2014-Oct-24 16:17 UTC.
Position N 39°49' W 075°24'.

Length 166 m; draft 6.6 m.

Type: Towing. MMSI: 367416750.

Date/timePositionNaut miles runAvg speedWind from/ knotsBaromVisibWave heightAir tempDewpointWater temp
2014-Oct-24 12:33N 39°49' W 075°24'9 9.4
2014-Oct-24 11:33N 39°41' W 075°31'8 7.7
2014-Oct-24 10:33N 39°34' W 075°33'1111.1
2014-Oct-24 09:33N 39°32' W 075°47'23 9.8
2014-Oct-24 07:13N 39°20' W 076°12'6 9.8
2014-Oct-24 06:33N 39°13' W 076°15'7 7.4
2014-Oct-24 05:33N 39°10' W 076°23'10 9.8
2014-Oct-24 04:33N 39°15' W 076°34'0 0.4
2014-Oct-24 03:33N 39°15' W 076°34'0 0.0
2014-Oct-24 02:33N 39°15' W 076°34'0 0.0
2014-Oct-24 01:33N 39°15' W 076°34'0 0.0
2014-Oct-24 00:33N 39°15' W 076°34'0 0.0
2014-Oct-23 23:33N 39°15' W 076°34'0 0.0
2014-Oct-23 22:33N 39°15' W 076°34'2 1.9
2014-Oct-23 21:33N 39°14' W 076°32'1110.0
2014-Oct-23 20:25N 39°09' W 076°19'3010.5
2014-Oct-23 17:30N 39°32' W 075°52'1111.2
2014-Oct-23 16:33N 39°33' W 075°39'7 6.7
2014-Oct-23 15:33N 39°39' W 075°33'10 8.5
2014-Oct-23 14:25N 39°47' W 075°27'11 0.3
2014-Oct-21 23:23N 39°52' W 075°14'0 0.0
2014-Oct-21 10:32N 39°52' W 075°14'0 0.0
2014-Oct-21 09:32N 39°52' W 075°14'0 0.0
2014-Oct-20 11:05N 39°52' W 075°13'0 0.2
2014-Oct-20 10:32N 39°52' W 075°14'0 0.0
2014-Oct-20 06:23N 39°52' W 075°14'0 0.1
2014-Oct-20 04:32N 39°52' W 075°13'0 0.0
2014-Oct-20 01:30N 39°52' W 075°13'8 8.3
2014-Oct-20 00:33N 39°49' W 075°23'1312.5
2014-Oct-19 23:33N 39°39' W 075°33'1211.8
2014-Oct-19 22:34N 39°27' W 075°34'64 7.1
2014-Oct-19 13:33N 39°26' W 074°10'1111.4
2014-Oct-19 12:33N 39°37' W 074°04'1111.3
2014-Oct-19 11:33N 39°47' W 073°58'3411.0
2014-Oct-19 08:29N 40°21' W 073°54'910.0
2014-Oct-19 07:33N 40°29' W 073°60'12 9.1
2014-Oct-19 06:14N 40°30' W 074°15'1 0.1
2014-Oct-18 21:27N 40°31' W 074°15'5 5.9
2014-Oct-18 20:31N 40°36' W 074°12'3 2.9
2014-Oct-18 19:33N 40°39' W 074°10'0 0.0
2014-Oct-18 18:33N 40°39' W 074°10'0 0.0
2014-Oct-18 17:33N 40°39' W 074°10'2 1.9
2014-Oct-18 16:29N 40°37' W 074°12'6 2.7
2014-Oct-18 14:11N 40°32' W 074°15'5 7.1
2014-Oct-18 13:29N 40°36' W 074°12'7 7.0
2014-Oct-18 12:33N 40°39' W 074°04'7 6.7
2014-Oct-18 11:33N 40°44' W 073°58'5 5.3
2014-Oct-18 10:33N 40°48' W 073°54'0 0.0
2014-Oct-18 09:18N 40°48' W 073°54'0 0.0
2014-Oct-18 08:27N 40°48' W 073°54'0 0.0
2014-Oct-18 07:33N 40°48' W 073°54'0 0.0
2014-Oct-18 06:33N 40°48' W 073°54'0 0.0
2014-Oct-18 05:33N 40°48' W 073°54'0 0.0
2014-Oct-18 04:33N 40°48' W 073°54'0 0.0
2014-Oct-18 03:33N 40°48' W 073°54'0 0.0
2014-Oct-18 02:33N 40°48' W 073°54'0 0.0
2014-Oct-18 01:33N 40°48' W 073°54'0 0.0
2014-Oct-18 00:33N 40°48' W 073°54'0 0.0
2014-Oct-17 23:33N 40°48' W 073°54'0 0.1
2014-Oct-17 22:33N 40°48' W 073°54'7 6.8
2014-Oct-17 21:33N 40°42' W 073°59'6 6.1
2014-Oct-17 20:33N 40°37' W 074°03'8 7.7
2014-Oct-17 19:28N 40°30' W 073°57'34 8.6
2014-Oct-17 15:31N 39°56' W 073°56'9 9.7
2014-Oct-17 14:33N 39°47' W 073°57'10 9.7
2014-Oct-17 13:33N 39°37' W 074°01'10 9.6
2014-Oct-17 12:32N 39°28' W 074°05'59 5.9
2014-Oct-17 02:28N 39°15' W 075°20'1112.0
2014-Oct-17 01:33N 39°24' W 075°29'1010.1
2014-Oct-17 00:33N 39°33' W 075°33'9 8.7
2014-Oct-16 23:33N 39°42' W 075°31'17 0.7
2014-Oct-15 22:33N 39°52' W 075°13'0 0.0
2014-Oct-15 19:06N 39°52' W 075°13'0 0.0
2014-Oct-15 18:27N 39°52' W 075°13'0 0.0
2014-Oct-15 12:18N 39°52' W 075°13'0 0.0
2014-Oct-15 09:33N 39°52' W 075°13'0 0.0
2014-Oct-15 08:27N 39°52' W 075°13'0 0.0
2014-Oct-15 07:33N 39°52' W 075°13'0 0.0
2014-Oct-15 00:12N 39°52' W 075°13'0 0.1
2014-Oct-14 23:33N 39°52' W 075°13'0 0.0
2014-Oct-14 21:06N 39°52' W 075°13'0 0.0
2014-Oct-14 20:21N 39°52' W 075°13'0 0.0
2014-Oct-14 19:09N 39°52' W 075°13'0 0.0
2014-Oct-14 17:33N 39°52' W 075°13'0 0.1
2014-Oct-14 16:12N 39°52' W 075°13'  

Dump ship's entire track history